メインページ
METAR-TAF:

METAR-TAF

空港 :

百里飛行場, 日本

緯度: 36-11N, 経度: 140-25E, 海抜: 32m

現時点の気象観測

当レポートは15分前の07:07(UTC)に作成
東/北東の風 6kt、北/北東からの間で変化する
気温 24°C
湿度 74%
気圧 1012 hPa
視程10km以上
高度1200ftの雲はほとんどない
高度1500ftの千切れ雲あり
弱いにわか雨

METAR: RJAH 200707Z 07006KT 030V100 9999 -SHRA FEW012 BKN015 24/19 Q1012 RMK 1CU012 7CU015 A2990

時間: 16:22 (07:22 UTC)

予報

当レポートは2時間15分前の05:07(UTC)に作成
予報は20日の 06時(UTC)から 21日の 12時(UTC)まで有効
北東の風 8kt
視程: 8000m
高度500ftの雲はほとんどない
高度2000ftの千切れ雲あり
弱いにわか雨
20日の 07時(UTC)から 20日の 09時(UTC)まで徐々に
高度500ftの雲はほとんどない
高度800ftの千切れ雲あり
20日の 08時(UTC)から 20日の 15時(UTC)まで一時的に
視程: 4000m
高度300ftの雲はほとんどない
高度500ftの千切れ雲あり
弱いにわか雨, 靄
20日の 15時(UTC)から 20日の 21時(UTC)まで一時的に
視程: 3000m
高度300ftの雲はほとんどない
高度500ftの千切れ雲あり
20日の 21時(UTC)から 21日の 00時(UTC)まで一時的に
視程: 4000m
高度300ftの雲はほとんどない
高度500ftの千切れ雲あり
21日の 00時(UTC)から 21日の 03時(UTC)まで徐々に
の風 8kt
高度1000ftの雲はほとんどない
高度3000ftの千切れ雲あり

TAF: RJAH 200507Z 2006/2112 05008KT 8000 -SHRA FEW005 BKN020 BECMG 2007/2009 FEW005 BKN008 TEMPO 2008/2015 4000 -SHRA BR FEW003 BKN005 TEMPO 2015/2021 3000 BR FEW003 BKN005 TEMPO 2021/2100 4000 BR FEW003 BKN005 BECMG 2100/2103 18008KT FEW010 BKN030

4,000以上の空港の気象観測と天気予報(METAR報とTAF報)

利用可能な観測所は地図上に黄色い丸と赤い丸で示す。

丸の上にカーソルを重ねると観測所名を参照できる。

次にクリックすると気象観測と天気予報を参照できる。

マップの切り替え:黒色「×」印の緑ボタンをクリックして拡大、「-」印の緑ボタンをクリックして縮小、緑色の三角印をクリックして隣りの地図に切り替え


METAR-TAF: